createdAt,value
2019-04-28T00:03:14.412Z,98282.36
2019-04-28T00:08:20.810Z,98271.16
2019-04-28T00:13:26.076Z,98286.48
2019-04-28T00:18:32.852Z,98287.25
2019-04-28T00:24:01.710Z,98289.20
2019-04-28T00:29:07.072Z,98301.59
2019-04-28T00:34:12.295Z,98297.94
2019-04-28T00:39:17.809Z,98294.55
2019-04-28T00:44:23.942Z,98304.15
2019-04-28T00:49:47.337Z,98299.28
2019-04-28T00:54:53.865Z,98300.05
2019-04-28T00:59:59.461Z,98305.86
2019-04-28T01:05:05.408Z,98308.53
2019-04-28T01:10:11.549Z,98300.52
2019-04-28T01:15:36.880Z,98308.53
2019-04-28T01:20:42.341Z,98315.87
2019-04-28T01:25:47.503Z,98308.68
2019-04-28T01:31:10.354Z,98308.11
2019-04-28T01:36:15.516Z,98308.47
2019-04-28T01:41:20.605Z,98317.83
2019-04-28T01:46:26.038Z,98321.95
2019-04-28T01:51:31.272Z,98326.31
2019-04-28T01:56:36.731Z,98323.53
2019-04-28T02:01:42.187Z,98325.95
2019-04-28T02:06:47.429Z,98331.80
2019-04-28T02:11:52.863Z,98335.31
2019-04-28T02:17:00.359Z,98343.12
2019-04-28T02:22:23.553Z,98347.48
2019-04-28T02:27:30.194Z,98352.04
2019-04-28T02:32:35.879Z,98348.86
2019-04-28T02:37:41.092Z,98349.77
2019-04-28T02:42:46.327Z,98349.55
2019-04-28T02:47:53.194Z,98348.47
2019-04-28T02:53:14.553Z,98356.52
2019-04-28T02:58:22.395Z,98354.53
2019-04-28T03:03:26.938Z,98364.27
2019-04-28T03:08:32.586Z,98372.61
2019-04-28T03:13:37.730Z,98370.11
2019-04-28T03:18:42.872Z,98369.53
2019-04-28T03:23:48.028Z,98369.39
2019-04-28T03:29:01.386Z,98377.16
2019-04-28T03:34:07.914Z,98388.95
2019-04-28T03:39:13.061Z,98393.79
2019-04-28T03:44:20.616Z,98400.25
2019-04-28T03:49:32.553Z,98393.06
2019-04-28T03:54:40.684Z,98390.39
2019-04-28T03:59:44.678Z,98388.45
2019-04-28T04:04:52.679Z,98374.73
2019-04-28T04:10:06.516Z,98367.33
2019-04-28T04:15:23.395Z,98363.66
2019-04-28T04:20:31.059Z,98370.95
2019-04-28T04:25:36.484Z,98375.93
2019-04-28T04:30:41.625Z,98379.66
2019-04-28T04:35:46.769Z,98368.14
2019-04-28T04:40:51.939Z,98376.98
2019-04-28T04:46:15.776Z,98385.72
2019-04-28T04:51:21.766Z,98385.11
2019-04-28T04:56:30.207Z,98395.55
2019-04-28T05:02:02.109Z,98394.07
2019-04-28T05:07:07.695Z,98398.66
2019-04-28T05:12:13.255Z,98411.05
2019-04-28T05:17:20.310Z,98414.30
2019-04-28T05:22:27.221Z,98425.35
2019-04-28T05:27:32.664Z,98434.70
2019-04-28T05:32:44.725Z,98439.22
2019-04-28T05:37:45.130Z,98441.39
2019-04-28T05:43:00.896Z,98458.01
2019-04-28T05:48:08.953Z,98461.77
2019-04-28T05:53:25.546Z,98470.52
2019-04-28T05:58:40.172Z,98470.40
2019-04-28T06:03:46.408Z,98470.56
2019-04-28T06:09:06.495Z,98470.78
2019-04-28T06:14:11.665Z,98476.41
2019-04-28T06:19:17.184Z,98492.08
2019-04-28T06:24:23.930Z,98499.94
2019-04-28T06:29:29.449Z,98504.64
2019-04-28T06:34:34.615Z,98516.45
2019-04-28T06:39:39.913Z,98521.09
2019-04-28T06:44:46.773Z,98517.61
2019-04-28T06:49:52.028Z,98517.75
2019-04-28T06:54:58.011Z,98523.31
2019-04-28T07:00:05.520Z,98528.78
2019-04-28T07:05:10.972Z,98533.84
2019-04-28T07:10:16.645Z,98532.78
2019-04-28T07:15:22.745Z,98533.31
2019-04-28T07:20:53.298Z,98531.92
2019-04-28T07:25:58.789Z,98534.96
2019-04-28T07:31:04.303Z,98529.17
2019-04-28T07:36:09.536Z,98539.55
2019-04-28T07:41:14.698Z,98545.64
2019-04-28T07:46:19.844Z,98545.06
2019-04-28T07:51:27.778Z,98547.80
2019-04-28T07:56:33.606Z,98542.00
2019-04-28T08:01:39.179Z,98554.01
2019-04-28T08:06:44.761Z,98555.20
2019-04-28T08:11:50.000Z,98570.69
2019-04-28T08:16:55.619Z,98571.09
2019-04-28T08:22:00.860Z,98581.88
2019-04-28T08:27:06.157Z,98588.61
2019-04-28T08:32:33.526Z,98592.94
2019-04-28T08:37:39.250Z,98593.12
2019-04-28T08:42:44.500Z,98594.09
2019-04-28T08:47:50.030Z,98606.76
2019-04-28T08:52:55.264Z,98604.20
2019-04-28T08:58:00.420Z,98604.02
2019-04-28T09:03:06.291Z,98601.34
2019-04-28T09:08:11.529Z,98614.05
2019-04-28T09:13:16.696Z,98627.73
2019-04-28T09:18:22.345Z,98629.24
2019-04-28T09:23:27.506Z,98631.19
2019-04-28T09:28:32.756Z,98630.20
2019-04-28T09:33:38.008Z,98640.58
2019-04-28T09:38:43.612Z,98636.57
2019-04-28T09:44:05.794Z,98632.05
2019-04-28T09:49:11.402Z,98631.15
2019-04-28T09:54:17.069Z,98627.75
2019-04-28T09:59:22.898Z,98633.93
2019-04-28T10:04:40.641Z,98632.72
2019-04-28T10:09:35.438Z,98634.47
2019-04-28T10:14:40.681Z,98635.13
2019-04-28T10:19:45.922Z,98638.96
2019-04-28T10:24:51.160Z,98625.20
2019-04-28T10:29:56.760Z,98617.94
2019-04-28T10:35:02.130Z,98620.15
2019-04-28T10:40:21.435Z,98615.55
2019-04-28T10:45:28.705Z,98614.56
2019-04-28T10:50:33.933Z,98610.30
2019-04-28T10:55:39.177Z,98612.20
2019-04-28T11:00:44.419Z,98605.86
2019-04-28T11:05:50.068Z,98604.54
2019-04-28T11:10:56.102Z,98605.10
2019-04-28T11:16:01.362Z,98611.18
2019-04-28T11:21:07.084Z,98615.45
2019-04-28T11:26:12.718Z,98611.35
2019-04-28T11:31:18.584Z,98611.45
2019-04-28T11:36:24.275Z,98615.20
2019-04-28T11:41:29.534Z,98619.97
2019-04-28T11:46:34.783Z,98612.26
2019-04-28T11:51:40.885Z,98615.64
2019-04-28T11:56:46.127Z,98621.41
2019-04-28T12:01:51.786Z,98628.81
2019-04-28T12:06:57.035Z,98625.86
2019-04-28T12:12:03.083Z,98625.38
2019-04-28T12:17:26.813Z,98629.98
2019-04-28T12:22:33.170Z,98639.81
2019-04-28T12:27:38.427Z,98643.45
2019-04-28T12:32:44.054Z,98644.50
2019-04-28T12:37:49.381Z,98636.16
2019-04-28T12:42:54.923Z,98634.21
2019-04-28T12:48:00.157Z,98632.08
2019-04-28T12:53:06.081Z,98630.39
2019-04-28T12:58:11.367Z,98633.18
2019-04-28T13:03:27.688Z,98628.41
2019-04-28T13:08:33.268Z,98627.91
2019-04-28T13:13:38.605Z,98627.91
2019-04-28T13:18:43.848Z,98629.73
2019-04-28T13:23:49.084Z,98630.12
2019-04-28T13:28:55.389Z,98643.77
2019-04-28T13:34:02.670Z,98644.02
2019-04-28T13:39:11.472Z,98659.73
2019-04-28T13:44:36.095Z,98663.14
2019-04-28T13:49:53.467Z,98664.92
2019-04-28T13:55:07.904Z,98674.07
2019-04-28T14:00:14.898Z,98690.50
2019-04-28T14:05:39.172Z,98682.50
2019-04-28T14:10:44.697Z,98688.15
2019-04-28T14:15:51.074Z,98687.66
2019-04-28T14:20:56.318Z,98695.52
2019-04-28T14:26:01.595Z,98685.78
2019-04-28T14:31:07.108Z,98681.39
2019-04-28T14:36:12.279Z,98672.69
2019-04-28T14:41:17.784Z,98663.14
2019-04-28T14:46:23.331Z,98654.66
2019-04-28T14:51:28.999Z,98643.28
2019-04-28T14:56:34.254Z,98650.80
2019-04-28T15:02:10.604Z,98636.02
2019-04-28T15:07:35.342Z,98632.83
2019-04-28T15:12:40.554Z,98647.50
2019-04-28T15:17:46.108Z,98643.91
2019-04-28T15:22:51.332Z,98649.12
2019-04-28T15:27:56.602Z,98641.43
2019-04-28T15:33:02.478Z,98647.47
2019-04-28T15:38:08.195Z,98640.03
2019-04-28T15:43:13.437Z,98642.14
2019-04-28T15:48:18.886Z,98640.55
2019-04-28T15:53:24.606Z,98637.98
2019-04-28T15:58:31.797Z,98646.29
2019-04-28T16:03:37.547Z,98637.09
2019-04-28T16:08:43.161Z,98639.53
2019-04-28T16:13:48.453Z,98628.71
2019-04-28T16:18:53.766Z,98630.59
2019-04-28T16:23:59.093Z,98624.13
2019-04-28T16:29:06.107Z,98629.78
2019-04-28T16:34:12.335Z,98631.78
2019-04-28T16:39:17.977Z,98640.48
2019-04-28T16:44:23.195Z,98644.63
2019-04-28T16:49:29.520Z,98644.87
2019-04-28T16:54:34.837Z,98648.17
2019-04-28T17:00:08.803Z,98650.09
2019-04-28T17:05:16.042Z,98652.33
2019-04-28T17:10:22.432Z,98650.20
2019-04-28T17:15:30.221Z,98651.58
2019-04-28T17:20:34.914Z,98651.05
2019-04-28T17:25:40.306Z,98653.36
2019-04-28T17:30:45.553Z,98658.43
2019-04-28T17:35:51.866Z,98666.41
2019-04-28T17:40:57.276Z,98668.38
2019-04-28T17:46:02.696Z,98670.42
2019-04-28T17:51:08.979Z,98667.45
2019-04-28T17:56:14.349Z,98679.75
2019-04-28T18:01:54.939Z,98687.28
2019-04-28T18:07:08.016Z,98696.42
2019-04-28T18:12:13.286Z,98699.35
2019-04-28T18:17:46.563Z,98703.91
2019-04-28T18:22:51.816Z,98710.17
2019-04-28T18:27:57.082Z,98717.41
2019-04-28T18:33:31.365Z,98727.49
2019-04-28T18:38:48.014Z,98735.20
2019-04-28T18:44:06.308Z,98737.34
2019-04-28T18:49:11.660Z,98741.98
2019-04-28T18:54:17.821Z,98744.05
2019-04-28T18:59:24.386Z,98758.51
2019-04-28T19:04:29.784Z,98759.83
2019-04-28T19:09:46.147Z,98762.81
2019-04-28T19:15:09.543Z,98777.47
2019-04-28T19:20:15.126Z,98775.69
2019-04-28T19:25:20.801Z,98785.09
2019-04-28T19:30:26.513Z,98776.02
2019-04-28T19:35:31.757Z,98784.68
2019-04-28T19:40:37.987Z,98792.61
2019-04-28T19:45:45.012Z,98800.45
2019-04-28T19:50:50.983Z,98803.61
2019-04-28T19:56:08.893Z,98805.16
2019-04-28T20:01:19.648Z,98805.53
2019-04-28T20:06:26.320Z,98809.58
2019-04-28T20:11:31.592Z,98813.91
2019-04-28T20:16:36.762Z,98813.56
2019-04-28T20:21:43.099Z,98809.19
2019-04-28T20:26:49.705Z,98818.20
2019-04-28T20:31:55.011Z,98823.28
2019-04-28T20:37:25.408Z,98829.69
2019-04-28T20:43:01.861Z,98825.11
2019-04-28T20:48:05.910Z,98834.63
2019-04-28T20:53:11.552Z,98835.78
2019-04-28T20:58:18.461Z,98837.27
2019-04-28T21:03:24.492Z,98837.30
2019-04-28T21:08:29.714Z,98846.79
2019-04-28T21:13:34.958Z,98846.30
2019-04-28T21:18:40.551Z,98850.23
2019-04-28T21:23:45.716Z,98851.98
2019-04-28T21:28:51.948Z,98850.66
2019-04-28T21:33:57.649Z,98853.58
2019-04-28T21:39:03.691Z,98853.36
2019-04-28T21:44:31.668Z,98848.48
2019-04-28T21:49:39.253Z,98845.09
2019-04-28T21:54:44.796Z,98843.15
2019-04-28T21:59:50.272Z,98841.45
2019-04-28T22:04:56.087Z,98840.73
2019-04-28T22:10:01.403Z,98843.92
2019-04-28T22:15:06.742Z,98839.55
2019-04-28T22:20:12.800Z,98836.88
2019-04-28T22:25:21.025Z,98839.31
2019-04-28T22:30:26.186Z,98836.88
2019-04-28T22:35:31.730Z,98840.13
2019-04-28T22:40:36.974Z,98847.18
2019-04-28T22:45:42.495Z,98849.48
2019-04-28T22:50:48.359Z,98841.93
2019-04-28T22:56:10.659Z,98857.34
2019-04-28T23:01:44.389Z,98858.67
2019-04-28T23:06:50.668Z,98861.56
2019-04-28T23:11:56.189Z,98867.41
2019-04-28T23:17:01.657Z,98869.45
2019-04-28T23:22:46.047Z,98879.91
2019-04-28T23:27:39.387Z,98884.52
2019-04-28T23:32:45.628Z,98876.12
2019-04-28T23:37:50.846Z,98883.27
2019-04-28T23:43:01.261Z,98884.36
2019-04-28T23:48:07.209Z,98884.47
2019-04-28T23:53:15.327Z,98889.31
2019-04-28T23:58:20.462Z,98887.80
